MSC Susanna — 3ECU4 — position and weather

sailwx.info

Track history (hours):
 
Tides and Currents Weather Stations Pressure Air Temp Water Temp Dewpoint Dewpoint Depression Visibility Wind Speed Wind Dir Waves Ship Positions

MSC Susanna

Last reported at 2015-May-26 02:06 UTC. Time now 2015-May-26 03:43 UTC.
Position N 36°13' W 007°42'.

Length 337 m; draft 10.7 m.

Type: Ship (hazmat cat A). MMSI: 371466000.

Date/timePositionNaut miles runAvg speedWind from/ knotsBaromVisibWave heightAir tempDewpointWater temp
2015-May-26 02:06N 36°13' W 007°42'713.1
2015-May-26 01:33N 36°15' W 007°51'1313.2
2015-May-26 00:33N 36°19' W 008°06'1313.1
2015-May-25 23:33N 36°22' W 008°22'1313.1
2015-May-25 22:33N 36°25' W 008°38'1312.9
2015-May-25 21:33N 36°29' W 008°53'1313.3
2015-May-25 20:33N 36°32' W 009°09'1312.9
2015-May-25 19:33N 36°39' W 009°23'1313.1
2015-May-25 18:33N 36°49' W 009°33'1413.5
2015-May-25 17:33N 37°02' W 009°37'1312.9
2015-May-25 16:33N 37°15' W 009°41'1313.0
2015-May-25 15:33N 37°28' W 009°44'1313.0
2015-May-25 14:33N 37°40' W 009°48'1313.1
2015-May-25 13:33N 37°53' W 009°52'1313.0
2015-May-25 12:33N 38°06' W 009°56'1313.0
2015-May-25 11:33N 38°18' W 009°59'1413.5
2015-May-25 10:33N 38°31' W 010°03'1413.5
2015-May-25 09:33N 38°45' W 010°06'1313.4
2015-May-25 08:33N 38°58' W 010°07'1313.1
2015-May-25 07:33N 39°11' W 010°06'1313.4
2015-May-25 06:33N 39°25' W 010°06'1313.4
2015-May-25 05:33N 39°38' W 010°06'1313.2
2015-May-25 04:34N 39°51' W 010°06'1313.2
2015-May-25 03:34N 40°04' W 010°06'1413.4
2015-May-25 02:32N 40°18' W 010°06'2713.5
2015-May-25 00:33N 40°45' W 010°06'61912.9
2015-May-23 00:33N 49°53' W 003°15'1512.3
2015-May-22 23:18N 50°00' W 002°55'811.3
2015-May-22 22:33N 50°02' W 002°42'5612.7
2015-May-22 18:08N 50°17' W 001°17'1118.4
2015-May-22 17:33N 50°20' W 001°01'1918.1
2015-May-22 16:32N 50°24' W 000°33'3316.4
2015-May-22 14:33N 50°33' E 000°17'1515.0
2015-May-22 13:33N 50°39' E 000°38'1514.6
2015-May-22 12:33N 50°48' E 000°56'1515.1
2015-May-22 11:33N 50°58' E 001°15'1817.9
2015-May-22 10:34N 51°09' E 001°37'1817.6
2015-May-22 09:33N 51°22' E 001°55'1414.5
2015-May-22 08:34N 51°21' E 002°18'1515.4
2015-May-22 07:33N 51°23' E 002°42'1313.5
2015-May-22 06:33N 51°25' E 003°04'1615.9
2015-May-22 05:33N 51°25' E 003°29'1010.2
2015-May-22 04:33N 51°22' E 003°45'1110.5
2015-May-22 03:33N 51°26' E 004°00'8 8.3
2015-May-22 02:33N 51°23' E 004°13'4 3.9
2015-May-22 01:33N 51°21' E 004°17'2 1.6
2015-May-22 00:33N 51°19' E 004°19'0 0.3
2015-May-21 23:33N 51°19' E 004°19'0 0.0
2015-May-21 22:33N 51°19' E 004°19'0 0.0
2015-May-21 21:33N 51°19' E 004°19'0 0.0
2015-May-21 20:33N 51°19' E 004°19'0 0.0
2015-May-21 19:33N 51°19' E 004°19'0 0.0
2015-May-21 18:33N 51°19' E 004°19'0 0.0
2015-May-21 17:33N 51°19' E 004°19'0 0.0
2015-May-21 16:33N 51°19' E 004°19'0 0.0
2015-May-21 15:33N 51°19' E 004°19'0 0.0
2015-May-21 14:33N 51°19' E 004°19'0 0.0
2015-May-21 13:33N 51°19' E 004°19'0 0.0
2015-May-21 12:30N 51°19' E 004°19'0 0.0
2015-May-21 11:33N 51°19' E 004°19'0 0.0
2015-May-21 10:33N 51°19' E 004°19'0 0.0
2015-May-21 09:33N 51°19' E 004°19'0 0.0
2015-May-21 08:33N 51°19' E 004°19'0 0.0
2015-May-21 07:33N 51°19' E 004°19'0 0.0
2015-May-21 06:33N 51°19' E 004°19'0 0.0
2015-May-21 05:33N 51°19' E 004°19'0 0.0
2015-May-21 04:33N 51°19' E 004°19'0 0.0
2015-May-21 03:33N 51°19' E 004°19'1 1.2
2015-May-21 02:33N 51°20' E 004°18'1 0.7
2015-May-21 01:33N 51°21' E 004°17'1 1.0
2015-May-21 00:33N 51°21' E 004°16'5 4.8
2015-May-20 23:33N 51°22' E 004°08'7 7.0
2015-May-20 22:33N 51°24' E 003°57'9 9.2
2015-May-20 21:33N 51°24' E 003°43'8 8.3
2015-May-20 20:33N 51°25' E 003°29'1414.1
2015-May-20 19:33N 51°24' E 003°07'1110.2
2015-May-20 18:32N 51°34' E 003°09'1312.8
2015-May-20 17:33N 51°47' E 003°14'9 9.1
2015-May-20 16:33N 51°55' E 003°18'2417.5
2015-May-20 15:10N 52°19' E 003°25'3118.1
2015-May-20 13:25N 52°48' E 003°44'1719.6
2015-May-20 12:34N 53°00' E 004°04'2019.3
2015-May-20 11:31N 53°15' E 004°27'1818.5
2015-May-20 10:34N 53°30' E 004°42'1818.1
2015-May-20 09:34N 53°37' E 005°11'1717.2
2015-May-20 08:33N 53°42' E 005°38'1717.2
2015-May-20 07:33N 53°47' E 006°06'3918.6
2015-May-20 05:27N 53°57' E 007°10'1719.5
2015-May-20 04:34N 54°01' E 007°39'2019.5
2015-May-20 03:33N 54°01' E 008°13'1616.4
2015-May-20 02:33N 53°56' E 008°39'1212.4
2015-May-20 01:33N 53°51' E 008°58'1010.3
2015-May-20 00:33N 53°52' E 009°16'1212.1
2015-May-19 23:33N 53°43' E 009°29'1111.4
2015-May-19 22:33N 53°34' E 009°41'8 8.5
2015-May-19 21:33N 53°32' E 009°55'0 0.0
2015-May-19 20:32N 53°32' E 009°55'0 0.0
2015-May-19 19:26N 53°32' E 009°55'0 0.0
2015-May-19 18:29N 53°32' E 009°55'0 0.0
2015-May-19 17:29N 53°32' E 009°55'0 0.0
2015-May-19 16:29N 53°32' E 009°55'0 0.0
2015-May-19 15:29N 53°32' E 009°55'0 0.0
2015-May-19 14:32N 53°32' E 009°55'0 0.0
2015-May-19 13:32N 53°32' E 009°55'0 0.0
2015-May-19 12:32N 53°32' E 009°55'0 0.0
2015-May-19 11:29N 53°32' E 009°55'0 0.0
2015-May-19 10:32N 53°32' E 009°55'0 0.0
2015-May-19 09:29N 53°32' E 009°55'0 0.0
2015-May-19 08:29N 53°32' E 009°55'0 0.0
2015-May-19 07:26N 53°32' E 009°55'0 0.0
2015-May-19 06:32N 53°32' E 009°55'0 0.0
2015-May-19 05:12N 53°32' E 009°55'0 0.1
2015-May-19 04:32N 53°32' E 009°54'5 5.4
2015-May-19 03:33N 53°34' E 009°46'1110.9
2015-May-19 02:33N 53°40' E 009°31'1414.3
2015-May-19 01:33N 53°52' E 009°18'1313.0
2015-May-19 00:33N 53°51' E 008°56'1514.7
2015-May-18 23:33N 53°58' E 008°34'1515.2
2015-May-18 22:33N 53°59' E 008°08'5 5.5
2015-May-18 21:33N 53°59' E 007°59'4 3.5
2015-May-18 20:33N 53°58' E 007°53'1111.1
2015-May-18 19:34N 53°56' E 007°35'1615.8
2015-May-18 18:33N 53°52' E 007°08'1815.3
2015-May-18 17:23N 53°48' E 006°39'1514.5
2015-May-18 16:23N 53°44' E 006°15'1114.0
2015-May-18 15:33N 53°40' E 005°57'1413.7
2015-May-18 14:33N 53°36' E 005°35'1615.6
2015-May-18 13:33N 53°31' E 005°10'1615.7
2015-May-18 12:33N 53°26' E 004°45'1616.3
2015-May-18 11:33N 53°11' E 004°32'1616.2
2015-May-18 10:33N 52°57' E 004°19'1615.7
2015-May-18 09:33N 52°44' E 004°04'1615.6
2015-May-18 08:33N 52°33' E 003°46'7417.5
2015-May-18 04:20N 51°52' E 002°06'1518.6
2015-May-18 03:33N 51°50' E 001°43'1111.5
2015-May-18 02:33N 51°56' E 001°28'6 6.3
2015-May-18 01:33N 51°58' E 001°18'0 0.0
2015-May-18 00:32N 51°58' E 001°18'0 0.0
2015-May-17 23:32N 51°58' E 001°18'0 0.0
2015-May-17 22:32N 51°58' E 001°18'0 0.0
2015-May-17 21:32N 51°58' E 001°18'0 0.0
2015-May-17 20:32N 51°58' E 001°18'0 0.0
2015-May-17 19:32N 51°58' E 001°18'0 0.0
2015-May-17 18:32N 51°58' E 001°18'0 0.0
2015-May-17 17:32N 51°58' E 001°18'0 0.0
2015-May-17 16:32N 51°58' E 001°18'0 0.0
2015-May-17 15:32N 51°58' E 001°18'0 0.0
2015-May-17 14:32N 51°58' E 001°18'0 0.0
2015-May-17 13:32N 51°58' E 001°18'0 0.0
2015-May-17 12:32N 51°58' E 001°18'0 0.0
2015-May-17 11:32N 51°58' E 001°18'3 3.4
2015-May-17 10:33N 51°56' E 001°22'1111.1
2015-May-17 09:33N 51°51' E 001°38'2 2.0
2015-May-17 08:29N 51°53' E 001°40'0 0.1
2015-May-17 07:32N 51°53' E 001°40'0 0.0
2015-May-17 06:32N 51°53' E 001°40'0 0.2
2015-May-17 05:32N 51°53' E 001°40'0 0.2
2015-May-17 04:32N 51°54' E 001°40'0 0.1
2015-May-17 03:32N 51°54' E 001°40'0 0.0
2015-May-17 02:32N 51°54' E 001°40'0 0.0
2015-May-17 01:32N 51°54' E 001°40'0 0.0
2015-May-17 00:32N 51°54' E 001°40'0 0.0
2015-May-16 23:32N 51°54' E 001°40'0 0.4
2015-May-16 22:32N 51°53' E 001°40'0 0.1
2015-May-16 21:32N 51°53' E 001°40'0 0.0
2015-May-16 20:32N 51°53' E 001°40'0 0.0
2015-May-16 19:32N 51°53' E 001°40'0 0.0
2015-May-16 18:32N 51°53' E 001°40'0 0.0
2015-May-16 17:32N 51°53' E 001°40'0 0.2
2015-May-16 16:32N 51°53' E 001°40'0 0.2
2015-May-16 15:32N 51°54' E 001°40'0 0.1
2015-May-16 14:34N 51°54' E 001°40'6 5.7
2015-May-16 13:34N 51°51' E 001°48'1312.6
2015-May-16 12:34N 51°38' E 001°50'1414.3
2015-May-16 11:33N 51°26' E 002°02'1615.8
2015-May-16 10:33N 51°13' E 001°48'1717.4
2015-May-16 09:33N 50°59' E 001°32'3517.5
2015-May-16 07:33N 50°31' E 000°58'2018.9
2015-May-16 06:29N 50°24' E 000°28'7418.9
2015-May-16 02:33N 50°05' W 001°24'  
Track history (hours):
 
Tides and Currents Weather Stations Pressure Air Temp Water Temp Dewpoint Dewpoint Depression Visibility Wind Speed Wind Dir Waves Ship Positions

MSC Susanna

Last reported at 2015-May-26 02:06 UTC. Time now 2015-May-26 03:43 UTC.
Position N 36°13' W 007°42'.

Length 337 m; draft 10.7 m.

Type: Ship (hazmat cat A). MMSI: 371466000.

Date/timePositionNaut miles runAvg speedWind from/ knotsBaromVisibWave heightAir tempDewpointWater temp
2015-May-26 02:06N 36°13' W 007°42'713.1
2015-May-26 01:33N 36°15' W 007°51'1313.2
2015-May-26 00:33N 36°19' W 008°06'1313.1
2015-May-25 23:33N 36°22' W 008°22'1313.1
2015-May-25 22:33N 36°25' W 008°38'1312.9
2015-May-25 21:33N 36°29' W 008°53'1313.3
2015-May-25 20:33N 36°32' W 009°09'1312.9
2015-May-25 19:33N 36°39' W 009°23'1313.1
2015-May-25 18:33N 36°49' W 009°33'1413.5
2015-May-25 17:33N 37°02' W 009°37'1312.9
2015-May-25 16:33N 37°15' W 009°41'1313.0
2015-May-25 15:33N 37°28' W 009°44'1313.0
2015-May-25 14:33N 37°40' W 009°48'1313.1
2015-May-25 13:33N 37°53' W 009°52'1313.0
2015-May-25 12:33N 38°06' W 009°56'1313.0
2015-May-25 11:33N 38°18' W 009°59'1413.5
2015-May-25 10:33N 38°31' W 010°03'1413.5
2015-May-25 09:33N 38°45' W 010°06'1313.4
2015-May-25 08:33N 38°58' W 010°07'1313.1
2015-May-25 07:33N 39°11' W 010°06'1313.4
2015-May-25 06:33N 39°25' W 010°06'1313.4
2015-May-25 05:33N 39°38' W 010°06'1313.2
2015-May-25 04:34N 39°51' W 010°06'1313.2
2015-May-25 03:34N 40°04' W 010°06'1413.4
2015-May-25 02:32N 40°18' W 010°06'2713.5
2015-May-25 00:33N 40°45' W 010°06'61912.9
2015-May-23 00:33N 49°53' W 003°15'1512.3
2015-May-22 23:18N 50°00' W 002°55'811.3
2015-May-22 22:33N 50°02' W 002°42'5612.7
2015-May-22 18:08N 50°17' W 001°17'1118.4
2015-May-22 17:33N 50°20' W 001°01'1918.1
2015-May-22 16:32N 50°24' W 000°33'3316.4
2015-May-22 14:33N 50°33' E 000°17'1515.0
2015-May-22 13:33N 50°39' E 000°38'1514.6
2015-May-22 12:33N 50°48' E 000°56'1515.1
2015-May-22 11:33N 50°58' E 001°15'1817.9
2015-May-22 10:34N 51°09' E 001°37'1817.6
2015-May-22 09:33N 51°22' E 001°55'1414.5
2015-May-22 08:34N 51°21' E 002°18'1515.4
2015-May-22 07:33N 51°23' E 002°42'1313.5
2015-May-22 06:33N 51°25' E 003°04'1615.9
2015-May-22 05:33N 51°25' E 003°29'1010.2
2015-May-22 04:33N 51°22' E 003°45'1110.5
2015-May-22 03:33N 51°26' E 004°00'8 8.3
2015-May-22 02:33N 51°23' E 004°13'4 3.9
2015-May-22 01:33N 51°21' E 004°17'2 1.6
2015-May-22 00:33N 51°19' E 004°19'0 0.3
2015-May-21 23:33N 51°19' E 004°19'0 0.0
2015-May-21 22:33N 51°19' E 004°19'0 0.0
2015-May-21 21:33N 51°19' E 004°19'0 0.0
2015-May-21 20:33N 51°19' E 004°19'0 0.0
2015-May-21 19:33N 51°19' E 004°19'0 0.0
2015-May-21 18:33N 51°19' E 004°19'0 0.0
2015-May-21 17:33N 51°19' E 004°19'0 0.0
2015-May-21 16:33N 51°19' E 004°19'0 0.0
2015-May-21 15:33N 51°19' E 004°19'0 0.0
2015-May-21 14:33N 51°19' E 004°19'0 0.0
2015-May-21 13:33N 51°19' E 004°19'0 0.0
2015-May-21 12:30N 51°19' E 004°19'0 0.0
2015-May-21 11:33N 51°19' E 004°19'0 0.0
2015-May-21 10:33N 51°19' E 004°19'0 0.0
2015-May-21 09:33N 51°19' E 004°19'0 0.0
2015-May-21 08:33N 51°19' E 004°19'0 0.0
2015-May-21 07:33N 51°19' E 004°19'0 0.0
2015-May-21 06:33N 51°19' E 004°19'0 0.0
2015-May-21 05:33N 51°19' E 004°19'0 0.0
2015-May-21 04:33N 51°19' E 004°19'0 0.0
2015-May-21 03:33N 51°19' E 004°19'1 1.2
2015-May-21 02:33N 51°20' E 004°18'1 0.7
2015-May-21 01:33N 51°21' E 004°17'1 1.0
2015-May-21 00:33N 51°21' E 004°16'5 4.8
2015-May-20 23:33N 51°22' E 004°08'7 7.0
2015-May-20 22:33N 51°24' E 003°57'9 9.2
2015-May-20 21:33N 51°24' E 003°43'8 8.3
2015-May-20 20:33N 51°25' E 003°29'1414.1
2015-May-20 19:33N 51°24' E 003°07'1110.2
2015-May-20 18:32N 51°34' E 003°09'1312.8
2015-May-20 17:33N 51°47' E 003°14'9 9.1
2015-May-20 16:33N 51°55' E 003°18'2417.5
2015-May-20 15:10N 52°19' E 003°25'3118.1
2015-May-20 13:25N 52°48' E 003°44'1719.6
2015-May-20 12:34N 53°00' E 004°04'2019.3
2015-May-20 11:31N 53°15' E 004°27'1818.5
2015-May-20 10:34N 53°30' E 004°42'1818.1
2015-May-20 09:34N 53°37' E 005°11'1717.2
2015-May-20 08:33N 53°42' E 005°38'1717.2
2015-May-20 07:33N 53°47' E 006°06'3918.6
2015-May-20 05:27N 53°57' E 007°10'1719.5
2015-May-20 04:34N 54°01' E 007°39'2019.5
2015-May-20 03:33N 54°01' E 008°13'1616.4
2015-May-20 02:33N 53°56' E 008°39'1212.4
2015-May-20 01:33N 53°51' E 008°58'1010.3
2015-May-20 00:33N 53°52' E 009°16'1212.1
2015-May-19 23:33N 53°43' E 009°29'1111.4
2015-May-19 22:33N 53°34' E 009°41'8 8.5
2015-May-19 21:33N 53°32' E 009°55'0 0.0
2015-May-19 20:32N 53°32' E 009°55'0 0.0
2015-May-19 19:26N 53°32' E 009°55'0 0.0
2015-May-19 18:29N 53°32' E 009°55'0 0.0
2015-May-19 17:29N 53°32' E 009°55'0 0.0
2015-May-19 16:29N 53°32' E 009°55'0 0.0
2015-May-19 15:29N 53°32' E 009°55'0 0.0
2015-May-19 14:32N 53°32' E 009°55'0 0.0
2015-May-19 13:32N 53°32' E 009°55'0 0.0
2015-May-19 12:32N 53°32' E 009°55'0 0.0
2015-May-19 11:29N 53°32' E 009°55'0 0.0
2015-May-19 10:32N 53°32' E 009°55'0 0.0
2015-May-19 09:29N 53°32' E 009°55'0 0.0
2015-May-19 08:29N 53°32' E 009°55'0 0.0
2015-May-19 07:26N 53°32' E 009°55'0 0.0
2015-May-19 06:32N 53°32' E 009°55'0 0.0
2015-May-19 05:12N 53°32' E 009°55'0 0.1
2015-May-19 04:32N 53°32' E 009°54'5 5.4
2015-May-19 03:33N 53°34' E 009°46'1110.9
2015-May-19 02:33N 53°40' E 009°31'1414.3
2015-May-19 01:33N 53°52' E 009°18'1313.0
2015-May-19 00:33N 53°51' E 008°56'1514.7
2015-May-18 23:33N 53°58' E 008°34'1515.2
2015-May-18 22:33N 53°59' E 008°08'5 5.5
2015-May-18 21:33N 53°59' E 007°59'4 3.5
2015-May-18 20:33N 53°58' E 007°53'1111.1
2015-May-18 19:34N 53°56' E 007°35'1615.8
2015-May-18 18:33N 53°52' E 007°08'1815.3
2015-May-18 17:23N 53°48' E 006°39'1514.5
2015-May-18 16:23N 53°44' E 006°15'1114.0
2015-May-18 15:33N 53°40' E 005°57'1413.7
2015-May-18 14:33N 53°36' E 005°35'1615.6
2015-May-18 13:33N 53°31' E 005°10'1615.7
2015-May-18 12:33N 53°26' E 004°45'1616.3
2015-May-18 11:33N 53°11' E 004°32'1616.2
2015-May-18 10:33N 52°57' E 004°19'1615.7
2015-May-18 09:33N 52°44' E 004°04'1615.6
2015-May-18 08:33N 52°33' E 003°46'7417.5
2015-May-18 04:20N 51°52' E 002°06'1518.6
2015-May-18 03:33N 51°50' E 001°43'1111.5
2015-May-18 02:33N 51°56' E 001°28'6 6.3
2015-May-18 01:33N 51°58' E 001°18'0 0.0
2015-May-18 00:32N 51°58' E 001°18'0 0.0
2015-May-17 23:32N 51°58' E 001°18'0 0.0
2015-May-17 22:32N 51°58' E 001°18'0 0.0
2015-May-17 21:32N 51°58' E 001°18'0 0.0
2015-May-17 20:32N 51°58' E 001°18'0 0.0
2015-May-17 19:32N 51°58' E 001°18'0 0.0
2015-May-17 18:32N 51°58' E 001°18'0 0.0
2015-May-17 17:32N 51°58' E 001°18'0 0.0
2015-May-17 16:32N 51°58' E 001°18'0 0.0
2015-May-17 15:32N 51°58' E 001°18'0 0.0
2015-May-17 14:32N 51°58' E 001°18'0 0.0
2015-May-17 13:32N 51°58' E 001°18'0 0.0
2015-May-17 12:32N 51°58' E 001°18'0 0.0
2015-May-17 11:32N 51°58' E 001°18'3 3.4
2015-May-17 10:33N 51°56' E 001°22'1111.1
2015-May-17 09:33N 51°51' E 001°38'2 2.0
2015-May-17 08:29N 51°53' E 001°40'0 0.1
2015-May-17 07:32N 51°53' E 001°40'0 0.0
2015-May-17 06:32N 51°53' E 001°40'0 0.2
2015-May-17 05:32N 51°53' E 001°40'0 0.2
2015-May-17 04:32N 51°54' E 001°40'0 0.1
2015-May-17 03:32N 51°54' E 001°40'0 0.0
2015-May-17 02:32N 51°54' E 001°40'0 0.0
2015-May-17 01:32N 51°54' E 001°40'0 0.0
2015-May-17 00:32N 51°54' E 001°40'0 0.0
2015-May-16 23:32N 51°54' E 001°40'0 0.4
2015-May-16 22:32N 51°53' E 001°40'0 0.1
2015-May-16 21:32N 51°53' E 001°40'0 0.0
2015-May-16 20:32N 51°53' E 001°40'0 0.0
2015-May-16 19:32N 51°53' E 001°40'0 0.0
2015-May-16 18:32N 51°53' E 001°40'0 0.0
2015-May-16 17:32N 51°53' E 001°40'0 0.2
2015-May-16 16:32N 51°53' E 001°40'0 0.2
2015-May-16 15:32N 51°54' E 001°40'0 0.1
2015-May-16 14:34N 51°54' E 001°40'6 5.7
2015-May-16 13:34N 51°51' E 001°48'1312.6
2015-May-16 12:34N 51°38' E 001°50'1414.3
2015-May-16 11:33N 51°26' E 002°02'1615.8
2015-May-16 10:33N 51°13' E 001°48'1717.4
2015-May-16 09:33N 50°59' E 001°32'3517.5
2015-May-16 07:33N 50°31' E 000°58'2018.9
2015-May-16 06:29N 50°24' E 000°28'7418.9
2015-May-16 02:33N 50°05' W 001°24'  

Dump ship's entire track history